sensor_id;sensor_type;location;lat;lon;timestamp;temperature;humidity
16578;DHT22;8401;52.528;13.340;2022-08-26T00:00:47;22.50;99.90
16578;DHT22;8401;52.528;13.340;2022-08-26T00:03:13;22.50;99.90
16578;DHT22;8401;52.528;13.340;2022-08-26T00:05:40;22.50;99.90
16578;DHT22;8401;52.528;13.340;2022-08-26T00:08:07;22.50;99.90
16578;DHT22;8401;52.528;13.340;2022-08-26T00:10:33;22.40;99.90
16578;DHT22;8401;52.528;13.340;2022-08-26T00:12:59;22.40;99.90
16578;DHT22;8401;52.528;13.340;2022-08-26T00:15:24;22.30;99.90
16578;DHT22;8401;52.528;13.340;2022-08-26T00:17:51;22.30;99.90
16578;DHT22;8401;52.528;13.340;2022-08-26T00:20:22;22.30;99.90
16578;DHT22;8401;52.528;13.340;2022-08-26T00:22:48;22.20;99.90
16578;DHT22;8401;52.528;13.340;2022-08-26T00:25:15;22.20;99.90
16578;DHT22;8401;52.528;13.340;2022-08-26T00:27:41;22.20;99.90
16578;DHT22;8401;52.528;13.340;2022-08-26T00:30:12;22.20;99.90
16578;DHT22;8401;52.528;13.340;2022-08-26T00:32:38;22.20;99.90
16578;DHT22;8401;52.528;13.340;2022-08-26T00:35:06;22.20;99.90
16578;DHT22;8401;52.528;13.340;2022-08-26T00:37:31;22.20;99.90
16578;DHT22;8401;52.528;13.340;2022-08-26T00:39:57;22.20;99.90
16578;DHT22;8401;52.528;13.340;2022-08-26T00:42:23;22.20;99.90
16578;DHT22;8401;52.528;13.340;2022-08-26T00:44:49;22.20;99.90
16578;DHT22;8401;52.528;13.340;2022-08-26T00:47:45;22.20;99.90
16578;DHT22;8401;52.528;13.340;2022-08-26T00:50:15;22.20;99.90
16578;DHT22;8401;52.528;13.340;2022-08-26T00:52:43;22.20;99.90
16578;DHT22;8401;52.528;13.340;2022-08-26T00:57:53;22.20;99.90
16578;DHT22;8401;52.528;13.340;2022-08-26T01:00:23;22.10;99.90
16578;DHT22;8401;52.528;13.340;2022-08-26T01:02:49;22.10;99.90
16578;DHT22;8401;52.528;13.340;2022-08-26T01:05:17;22.10;99.90
16578;DHT22;8401;52.528;13.340;2022-08-26T01:07:43;22.10;99.90
16578;DHT22;8401;52.528;13.340;2022-08-26T01:10:13;22.10;99.90
16578;DHT22;8401;52.528;13.340;2022-08-26T01:12:47;22.20;99.90
16578;DHT22;8401;52.528;13.340;2022-08-26T01:15:21;22.10;99.90
16578;DHT22;8401;52.528;13.340;2022-08-26T01:17:48;22.20;99.90
16578;DHT22;8401;52.528;13.340;2022-08-26T01:23:12;22.10;99.90
16578;DHT22;8401;52.528;13.340;2022-08-26T01:25:51;22.10;99.90
16578;DHT22;8401;52.528;13.340;2022-08-26T01:28:23;22.20;99.90
16578;DHT22;8401;52.528;13.340;2022-08-26T01:30:50;22.20;99.90
16578;DHT22;8401;52.528;13.340;2022-08-26T01:33:22;22.20;99.90
16578;DHT22;8401;52.528;13.340;2022-08-26T01:35:49;22.20;99.90
16578;DHT22;8401;52.528;13.340;2022-08-26T01:38:15;22.20;99.90
16578;DHT22;8401;52.528;13.340;2022-08-26T01:40:42;22.20;99.90
16578;DHT22;8401;52.528;13.340;2022-08-26T01:43:16;22.10;99.90
16578;DHT22;8401;52.528;13.340;2022-08-26T01:45:44;22.10;99.90
16578;DHT22;8401;52.528;13.340;2022-08-26T01:48:14;22.00;99.90
16578;DHT22;8401;52.528;13.340;2022-08-26T01:50:42;22.00;99.90
16578;DHT22;8401;52.528;13.340;2022-08-26T01:53:11;22.00;99.90
16578;DHT22;8401;52.528;13.340;2022-08-26T01:55:43;21.90;99.90
16578;DHT22;8401;52.528;13.340;2022-08-26T01:58:23;22.00;99.90
16578;DHT22;8401;52.528;13.340;2022-08-26T02:00:51;21.90;99.90
16578;DHT22;8401;52.528;13.340;2022-08-26T02:03:17;22.00;99.90
16578;DHT22;8401;52.528;13.340;2022-08-26T02:06:15;21.90;99.90
16578;DHT22;8401;52.528;13.340;2022-08-26T02:08:43;21.90;99.90
16578;DHT22;8401;52.528;13.340;2022-08-26T02:11:10;21.80;99.90
16578;DHT22;8401;52.528;13.340;2022-08-26T02:13:41;21.80;99.90
16578;DHT22;8401;52.528;13.340;2022-08-26T02:16:08;21.80;99.90
16578;DHT22;8401;52.528;13.340;2022-08-26T02:18:37;21.80;99.90
16578;DHT22;8401;52.528;13.340;2022-08-26T02:21:04;21.80;99.90
16578;DHT22;8401;52.528;13.340;2022-08-26T02:23:31;21.70;99.90
16578;DHT22;8401;52.528;13.340;2022-08-26T02:26:04;21.70;99.90
16578;DHT22;8401;52.528;13.340;2022-08-26T02:28:36;21.80;99.90
16578;DHT22;8401;52.528;13.340;2022-08-26T02:31:03;21.80;99.90
16578;DHT22;8401;52.528;13.340;2022-08-26T02:33:29;21.90;99.90
16578;DHT22;8401;52.528;13.340;2022-08-26T02:35:55;21.80;99.90
16578;DHT22;8401;52.528;13.340;2022-08-26T02:38:20;21.80;99.90
16578;DHT22;8401;52.528;13.340;2022-08-26T02:40:46;21.80;99.90
16578;DHT22;8401;52.528;13.340;2022-08-26T02:43:12;21.80;99.90
16578;DHT22;8401;52.528;13.340;2022-08-26T02:45:39;21.80;99.90
16578;DHT22;8401;52.528;13.340;2022-08-26T02:48:13;21.70;99.90
16578;DHT22;8401;52.528;13.340;2022-08-26T02:50:39;21.70;99.90
16578;DHT22;8401;52.528;13.340;2022-08-26T02:53:05;21.70;99.90
16578;DHT22;8401;52.528;13.340;2022-08-26T02:55:32;21.70;99.90
16578;DHT22;8401;52.528;13.340;2022-08-26T02:57:57;21.70;99.90
16578;DHT22;8401;52.528;13.340;2022-08-26T03:00:24;21.70;99.90
16578;DHT22;8401;52.528;13.340;2022-08-26T03:02:50;21.70;99.90
16578;DHT22;8401;52.528;13.340;2022-08-26T03:05:16;21.60;99.90
16578;DHT22;8401;52.528;13.340;2022-08-26T03:07:42;21.60;99.90
16578;DHT22;8401;52.528;13.340;2022-08-26T03:10:08;21.70;99.90
16578;DHT22;8401;52.528;13.340;2022-08-26T03:12:37;21.60;99.90
16578;DHT22;8401;52.528;13.340;2022-08-26T03:15:03;21.60;99.90
16578;DHT22;8401;52.528;13.340;2022-08-26T03:17:30;21.60;99.90
16578;DHT22;8401;52.528;13.340;2022-08-26T03:19:55;21.60;99.90
16578;DHT22;8401;52.528;13.340;2022-08-26T03:22:21;21.60;99.90
16578;DHT22;8401;52.528;13.340;2022-08-26T03:24:46;21.60;99.90
16578;DHT22;8401;52.528;13.340;2022-08-26T03:27:12;21.70;99.90
16578;DHT22;8401;52.528;13.340;2022-08-26T03:29:38;21.60;99.90
16578;DHT22;8401;52.528;13.340;2022-08-26T03:32:22;21.70;99.90
16578;DHT22;8401;52.528;13.340;2022-08-26T03:34:48;21.70;99.90
16578;DHT22;8401;52.528;13.340;2022-08-26T03:37:13;21.70;99.90
16578;DHT22;8401;52.528;13.340;2022-08-26T03:39:39;21.70;99.90
16578;DHT22;8401;52.528;13.340;2022-08-26T03:42:06;21.60;99.90
16578;DHT22;8401;52.528;13.340;2022-08-26T03:44:31;21.60;99.90
16578;DHT22;8401;52.528;13.340;2022-08-26T03:46:57;21.60;99.90
16578;DHT22;8401;52.528;13.340;2022-08-26T03:49:22;21.50;99.90
16578;DHT22;8401;52.528;13.340;2022-08-26T03:51:48;21.50;99.90
16578;DHT22;8401;52.528;13.340;2022-08-26T03:54:14;21.50;99.90
16578;DHT22;8401;52.528;13.340;2022-08-26T03:56:39;21.40;99.90
16578;DHT22;8401;52.528;13.340;2022-08-26T03:59:05;21.40;99.90
16578;DHT22;8401;52.528;13.340;2022-08-26T04:01:31;21.40;99.90
16578;DHT22;8401;52.528;13.340;2022-08-26T04:03:57;21.40;99.90
16578;DHT22;8401;52.528;13.340;2022-08-26T04:08:49;21.40;99.90
16578;DHT22;8401;52.528;13.340;2022-08-26T04:11:23;21.40;99.90
16578;DHT22;8401;52.528;13.340;2022-08-26T04:13:49;21.40;99.90
16578;DHT22;8401;52.528;13.340;2022-08-26T04:16:16;21.40;99.90
16578;DHT22;8401;52.528;13.340;2022-08-26T04:18:41;21.40;99.90
16578;DHT22;8401;52.528;13.340;2022-08-26T04:21:08;21.40;99.90
16578;DHT22;8401;52.528;13.340;2022-08-26T04:23:35;21.40;99.90
16578;DHT22;8401;52.528;13.340;2022-08-26T04:26:00;21.40;99.90
16578;DHT22;8401;52.528;13.340;2022-08-26T04:28:27;21.40;99.90
16578;DHT22;8401;52.528;13.340;2022-08-26T04:30:53;21.40;99.90
16578;DHT22;8401;52.528;13.340;2022-08-26T04:33:18;21.40;99.90
16578;DHT22;8401;52.528;13.340;2022-08-26T04:35:44;21.40;99.90
16578;DHT22;8401;52.528;13.340;2022-08-26T04:38:10;21.50;99.90
16578;DHT22;8401;52.528;13.340;2022-08-26T04:40:38;21.60;99.90
16578;DHT22;8401;52.528;13.340;2022-08-26T04:43:06;21.50;99.90
16578;DHT22;8401;52.528;13.340;2022-08-26T04:45:37;21.50;99.90
16578;DHT22;8401;52.528;13.340;2022-08-26T04:48:04;21.50;99.90
16578;DHT22;8401;52.528;13.340;2022-08-26T04:50:30;21.50;99.90
16578;DHT22;8401;52.528;13.340;2022-08-26T04:52:57;21.60;99.90
16578;DHT22;8401;52.528;13.340;2022-08-26T04:55:23;21.60;99.90
16578;DHT22;8401;52.528;13.340;2022-08-26T04:57:50;21.60;99.90
16578;DHT22;8401;52.528;13.340;2022-08-26T05:00:16;21.70;99.90
16578;DHT22;8401;52.528;13.340;2022-08-26T05:02:41;21.70;99.90
16578;DHT22;8401;52.528;13.340;2022-08-26T05:05:07;21.80;99.90
16578;DHT22;8401;52.528;13.340;2022-08-26T05:07:33;21.90;99.90
16578;DHT22;8401;52.528;13.340;2022-08-26T05:10:00;21.90;99.90
16578;DHT22;8401;52.528;13.340;2022-08-26T05:12:28;22.00;99.90
16578;DHT22;8401;52.528;13.340;2022-08-26T05:14:54;22.30;99.90
16578;DHT22;8401;52.528;13.340;2022-08-26T05:17:20;22.40;99.90
16578;DHT22;8401;52.528;13.340;2022-08-26T05:19:46;22.40;99.90
16578;DHT22;8401;52.528;13.340;2022-08-26T05:22:12;22.40;99.90
16578;DHT22;8401;52.528;13.340;2022-08-26T05:24:38;22.40;99.90
16578;DHT22;8401;52.528;13.340;2022-08-26T05:27:04;22.40;99.90
16578;DHT22;8401;52.528;13.340;2022-08-26T05:29:30;22.40;99.90
16578;DHT22;8401;52.528;13.340;2022-08-26T05:31:55;22.40;99.90
16578;DHT22;8401;52.528;13.340;2022-08-26T05:34:21;22.50;99.90
16578;DHT22;8401;52.528;13.340;2022-08-26T05:36:46;22.50;99.90
16578;DHT22;8401;52.528;13.340;2022-08-26T05:39:12;22.50;99.90
16578;DHT22;8401;52.528;13.340;2022-08-26T05:41:40;22.70;99.90
16578;DHT22;8401;52.528;13.340;2022-08-26T05:44:09;22.80;99.90
16578;DHT22;8401;52.528;13.340;2022-08-26T05:46:36;22.70;99.90
16578;DHT22;8401;52.528;13.340;2022-08-26T05:49:03;22.60;99.90
16578;DHT22;8401;52.528;13.340;2022-08-26T05:51:29;22.50;99.90
16578;DHT22;8401;52.528;13.340;2022-08-26T05:53:55;22.60;99.90
16578;DHT22;8401;52.528;13.340;2022-08-26T05:56:21;22.50;99.90
16578;DHT22;8401;52.528;13.340;2022-08-26T05:58:52;22.60;99.90
16578;DHT22;8401;52.528;13.340;2022-08-26T06:01:21;22.90;99.90
16578;DHT22;8401;52.528;13.340;2022-08-26T06:03:49;23.10;99.90
16578;DHT22;8401;52.528;13.340;2022-08-26T06:06:21;23.00;99.90
16578;DHT22;8401;52.528;13.340;2022-08-26T06:08:47;22.90;99.90
16578;DHT22;8401;52.528;13.340;2022-08-26T06:11:16;22.80;99.90
16578;DHT22;8401;52.528;13.340;2022-08-26T06:13:42;22.80;99.90
16578;DHT22;8401;52.528;13.340;2022-08-26T06:16:11;22.80;99.90
16578;DHT22;8401;52.528;13.340;2022-08-26T06:18:41;23.00;99.90
16578;DHT22;8401;52.528;13.340;2022-08-26T06:23:40;23.20;99.90
16578;DHT22;8401;52.528;13.340;2022-08-26T06:26:25;23.60;99.90
16578;DHT22;8401;52.528;13.340;2022-08-26T06:28:51;23.70;99.90
16578;DHT22;8401;52.528;13.340;2022-08-26T06:31:17;23.70;99.90
16578;DHT22;8401;52.528;13.340;2022-08-26T06:33:43;23.80;99.90
16578;DHT22;8401;52.528;13.340;2022-08-26T06:36:18;23.80;99.90
16578;DHT22;8401;52.528;13.340;2022-08-26T06:38:49;23.90;99.90
16578;DHT22;8401;52.528;13.340;2022-08-26T06:41:15;24.20;99.90
16578;DHT22;8401;52.528;13.340;2022-08-26T06:43:42;24.10;99.90
16578;DHT22;8401;52.528;13.340;2022-08-26T06:46:11;24.10;99.90
16578;DHT22;8401;52.528;13.340;2022-08-26T06:48:38;24.40;99.90
16578;DHT22;8401;52.528;13.340;2022-08-26T06:51:18;24.60;99.90
16578;DHT22;8401;52.528;13.340;2022-08-26T06:53:45;24.60;99.90
16578;DHT22;8401;52.528;13.340;2022-08-26T06:56:13;24.80;99.90
16578;DHT22;8401;52.528;13.340;2022-08-26T06:58:41;24.80;99.90
16578;DHT22;8401;52.528;13.340;2022-08-26T07:01:25;24.80;99.90
16578;DHT22;8401;52.528;13.340;2022-08-26T07:03:54;24.80;99.90
16578;DHT22;8401;52.528;13.340;2022-08-26T07:06:20;24.80;99.90
16578;DHT22;8401;52.528;13.340;2022-08-26T07:08:47;25.00;99.90
16578;DHT22;8401;52.528;13.340;2022-08-26T07:11:13;25.00;99.90
16578;DHT22;8401;52.528;13.340;2022-08-26T07:13:39;24.80;99.90
16578;DHT22;8401;52.528;13.340;2022-08-26T07:16:10;25.00;99.90
16578;DHT22;8401;52.528;13.340;2022-08-26T07:18:38;24.90;99.90
16578;DHT22;8401;52.528;13.340;2022-08-26T07:21:06;25.10;99.90
16578;DHT22;8401;52.528;13.340;2022-08-26T07:23:33;25.20;99.90
16578;DHT22;8401;52.528;13.340;2022-08-26T07:26:00;25.30;99.90
16578;DHT22;8401;52.528;13.340;2022-08-26T07:28:28;25.70;99.90
16578;DHT22;8401;52.528;13.340;2022-08-26T07:30:53;25.70;99.90
16578;DHT22;8401;52.528;13.340;2022-08-26T07:33:19;26.00;99.90
16578;DHT22;8401;52.528;13.340;2022-08-26T07:35:45;26.10;99.90
16578;DHT22;8401;52.528;13.340;2022-08-26T07:38:11;26.20;99.90
16578;DHT22;8401;52.528;13.340;2022-08-26T07:40:37;26.50;99.90
16578;DHT22;8401;52.528;13.340;2022-08-26T07:43:04;26.50;99.90
16578;DHT22;8401;52.528;13.340;2022-08-26T07:45:30;26.60;99.90
16578;DHT22;8401;52.528;13.340;2022-08-26T07:47:55;26.60;99.90
16578;DHT22;8401;52.528;13.340;2022-08-26T07:50:21;27.10;99.90
16578;DHT22;8401;52.528;13.340;2022-08-26T07:52:47;27.10;99.90
16578;DHT22;8401;52.528;13.340;2022-08-26T07:55:13;27.50;99.90
16578;DHT22;8401;52.528;13.340;2022-08-26T07:57:38;27.60;99.90
16578;DHT22;8401;52.528;13.340;2022-08-26T08:00:06;27.80;99.90
16578;DHT22;8401;52.528;13.340;2022-08-26T08:02:33;27.80;99.90
16578;DHT22;8401;52.528;13.340;2022-08-26T08:04:58;28.10;99.90
16578;DHT22;8401;52.528;13.340;2022-08-26T08:07:25;28.20;99.90
16578;DHT22;8401;52.528;13.340;2022-08-26T08:09:50;28.30;99.90
16578;DHT22;8401;52.528;13.340;2022-08-26T08:12:17;28.70;99.90
16578;DHT22;8401;52.528;13.340;2022-08-26T08:14:43;28.90;99.90
16578;DHT22;8401;52.528;13.340;2022-08-26T08:17:11;29.40;99.90
16578;DHT22;8401;52.528;13.340;2022-08-26T08:19:37;29.40;99.90
16578;DHT22;8401;52.528;13.340;2022-08-26T08:22:03;29.60;99.90
16578;DHT22;8401;52.528;13.340;2022-08-26T08:24:32;29.50;99.90
16578;DHT22;8401;52.528;13.340;2022-08-26T08:26:59;29.40;99.90
16578;DHT22;8401;52.528;13.340;2022-08-26T08:29:25;29.20;99.90
16578;DHT22;8401;52.528;13.340;2022-08-26T08:31:54;29.40;99.90
16578;DHT22;8401;52.528;13.340;2022-08-26T08:34:20;30.20;99.90
16578;DHT22;8401;52.528;13.340;2022-08-26T08:36:46;30.60;99.90
16578;DHT22;8401;52.528;13.340;2022-08-26T08:39:12;30.90;99.90
16578;DHT22;8401;52.528;13.340;2022-08-26T08:44:29;32.40;99.90
16578;DHT22;8401;52.528;13.340;2022-08-26T08:46:58;32.60;99.90
16578;DHT22;8401;52.528;13.340;2022-08-26T08:49:26;33.20;99.90
16578;DHT22;8401;52.528;13.340;2022-08-26T08:52:08;33.30;99.90
16578;DHT22;8401;52.528;13.340;2022-08-26T08:54:36;33.00;99.90
16578;DHT22;8401;52.528;13.340;2022-08-26T09:00:10;33.50;99.90
16578;DHT22;8401;52.528;13.340;2022-08-26T09:02:58;34.00;99.90
16578;DHT22;8401;52.528;13.340;2022-08-26T09:05:35;35.30;99.90
16578;DHT22;8401;52.528;13.340;2022-08-26T09:08:08;35.40;99.90
16578;DHT22;8401;52.528;13.340;2022-08-26T09:10:56;34.60;99.90
16578;DHT22;8401;52.528;13.340;2022-08-26T09:13:23;33.60;99.90
16578;DHT22;8401;52.528;13.340;2022-08-26T09:21:20;34.20;99.90
16578;DHT22;8401;52.528;13.340;2022-08-26T09:23:48;34.20;99.90
16578;DHT22;8401;52.528;13.340;2022-08-26T09:26:27;34.10;99.90
16578;DHT22;8401;52.528;13.340;2022-08-26T09:28:59;34.00;99.90
16578;DHT22;8401;52.528;13.340;2022-08-26T09:31:28;33.00;99.90
16578;DHT22;8401;52.528;13.340;2022-08-26T09:34:18;32.50;99.90
16578;DHT22;8401;52.528;13.340;2022-08-26T09:44:28;31.20;99.90
16578;DHT22;8401;52.528;13.340;2022-08-26T09:47:00;30.90;99.90
16578;DHT22;8401;52.528;13.340;2022-08-26T09:49:38;31.80;99.90
16578;DHT22;8401;52.528;13.340;2022-08-26T09:52:13;32.00;99.90
16578;DHT22;8401;52.528;13.340;2022-08-26T09:54:42;32.00;99.90
16578;DHT22;8401;52.528;13.340;2022-08-26T09:57:15;32.10;99.90
16578;DHT22;8401;52.528;13.340;2022-08-26T09:59:41;32.50;99.90
16578;DHT22;8401;52.528;13.340;2022-08-26T10:02:19;34.00;99.90
16578;DHT22;8401;52.528;13.340;2022-08-26T10:04:55;34.80;99.90
16578;DHT22;8401;52.528;13.340;2022-08-26T10:07:42;35.00;99.90
16578;DHT22;8401;52.528;13.340;2022-08-26T10:10:12;36.30;99.90
16578;DHT22;8401;52.528;13.340;2022-08-26T10:15:49;37.50;99.90
16578;DHT22;8401;52.528;13.340;2022-08-26T10:18:30;38.40;99.90
16578;DHT22;8401;52.528;13.340;2022-08-26T10:21:05;38.30;99.90
16578;DHT22;8401;52.528;13.340;2022-08-26T10:23:41;38.80;99.90
16578;DHT22;8401;52.528;13.340;2022-08-26T10:26:12;37.70;99.90
16578;DHT22;8401;52.528;13.340;2022-08-26T10:28:43;39.00;99.80
16578;DHT22;8401;52.528;13.340;2022-08-26T10:31:48;39.20;97.70
16578;DHT22;8401;52.528;13.340;2022-08-26T10:34:16;38.80;97.40
16578;DHT22;8401;52.528;13.340;2022-08-26T10:36:52;39.50;97.50
16578;DHT22;8401;52.528;13.340;2022-08-26T10:41:47;39.70;96.00
16578;DHT22;8401;52.528;13.340;2022-08-26T10:44:16;40.30;94.00
16578;DHT22;8401;52.528;13.340;2022-08-26T10:46:56;38.50;95.10
16578;DHT22;8401;52.528;13.340;2022-08-26T10:49:23;38.50;95.70
16578;DHT22;8401;52.528;13.340;2022-08-26T10:52:09;38.10;96.30
16578;DHT22;8401;52.528;13.340;2022-08-26T10:54:51;36.90;97.90
16578;DHT22;8401;52.528;13.340;2022-08-26T10:57:38;35.50;99.70
16578;DHT22;8401;52.528;13.340;2022-08-26T11:00:10;34.50;99.90
16578;DHT22;8401;52.528;13.340;2022-08-26T11:08:56;34.30;99.90
16578;DHT22;8401;52.528;13.340;2022-08-26T11:22:10;32.90;99.90
16578;DHT22;8401;52.528;13.340;2022-08-26T11:37:50;31.90;99.90
16578;DHT22;8401;52.528;13.340;2022-08-26T11:40:20;31.80;99.90
16578;DHT22;8401;52.528;13.340;2022-08-26T11:45:26;31.10;99.90
16578;DHT22;8401;52.528;13.340;2022-08-26T11:47:53;31.10;99.90
16578;DHT22;8401;52.528;13.340;2022-08-26T11:50:26;29.60;99.90
16578;DHT22;8401;52.528;13.340;2022-08-26T11:53:00;28.50;99.90
16578;DHT22;8401;52.528;13.340;2022-08-26T11:55:30;27.20;99.90
16578;DHT22;8401;52.528;13.340;2022-08-26T11:57:57;26.30;99.90
16578;DHT22;8401;52.528;13.340;2022-08-26T12:00:31;26.10;99.90
16578;DHT22;8401;52.528;13.340;2022-08-26T12:02:59;26.20;99.90
16578;DHT22;8401;52.528;13.340;2022-08-26T12:05:28;26.00;99.90
16578;DHT22;8401;52.528;13.340;2022-08-26T12:07:55;26.00;99.90
16578;DHT22;8401;52.528;13.340;2022-08-26T12:10:27;25.90;99.90
16578;DHT22;8401;52.528;13.340;2022-08-26T12:12:58;25.60;99.90
16578;DHT22;8401;52.528;13.340;2022-08-26T12:15:26;25.60;99.90
16578;DHT22;8401;52.528;13.340;2022-08-26T12:17:52;25.20;99.90
16578;DHT22;8401;52.528;13.340;2022-08-26T12:20:31;25.10;99.90
16578;DHT22;8401;52.528;13.340;2022-08-26T12:26:01;25.00;99.90
16578;DHT22;8401;52.528;13.340;2022-08-26T12:28:28;25.20;99.90
16578;DHT22;8401;52.528;13.340;2022-08-26T12:30:59;24.90;99.90
16578;DHT22;8401;52.528;13.340;2022-08-26T12:33:25;25.10;99.90
16578;DHT22;8401;52.528;13.340;2022-08-26T12:35:52;24.60;99.90
16578;DHT22;8401;52.528;13.340;2022-08-26T12:38:18;24.30;99.90
16578;DHT22;8401;52.528;13.340;2022-08-26T12:43:13;24.00;99.90
16578;DHT22;8401;52.528;13.340;2022-08-26T12:45:58;24.10;99.90
16578;DHT22;8401;52.528;13.340;2022-08-26T12:48:28;24.10;99.90
16578;DHT22;8401;52.528;13.340;2022-08-26T12:50:54;24.30;99.90
16578;DHT22;8401;52.528;13.340;2022-08-26T12:53:31;24.40;99.90
16578;DHT22;8401;52.528;13.340;2022-08-26T12:56:03;24.30;99.90
16578;DHT22;8401;52.528;13.340;2022-08-26T12:58:38;24.20;99.90
16578;DHT22;8401;52.528;13.340;2022-08-26T13:06:11;24.30;99.90
16578;DHT22;8401;52.528;13.340;2022-08-26T13:14:12;23.60;99.90
16578;DHT22;8401;52.528;13.340;2022-08-26T13:16:39;23.50;99.90
16578;DHT22;8401;52.528;13.340;2022-08-26T13:19:15;23.20;99.90
16578;DHT22;8401;52.528;13.340;2022-08-26T13:21:46;23.00;99.90
16578;DHT22;8401;52.528;13.340;2022-08-26T13:24:16;22.90;99.90
16578;DHT22;8401;52.528;13.340;2022-08-26T13:26:43;22.70;99.90
16578;DHT22;8401;52.528;13.340;2022-08-26T13:29:10;22.70;99.90
16578;DHT22;8401;52.528;13.340;2022-08-26T13:31:38;22.80;99.90
16578;DHT22;8401;52.528;13.340;2022-08-26T13:34:04;22.80;99.90
16578;DHT22;8401;52.528;13.340;2022-08-26T13:36:29;22.70;99.90
16578;DHT22;8401;52.528;13.340;2022-08-26T13:38:55;22.80;99.90
16578;DHT22;8401;52.528;13.340;2022-08-26T13:41:21;22.80;99.90
16578;DHT22;8401;52.528;13.340;2022-08-26T13:43:47;22.80;99.90
16578;DHT22;8401;52.528;13.340;2022-08-26T13:46:12;22.80;99.90
16578;DHT22;8401;52.528;13.340;2022-08-26T13:48:38;23.00;99.90
16578;DHT22;8401;52.528;13.340;2022-08-26T13:51:07;22.90;99.90
16578;DHT22;8401;52.528;13.340;2022-08-26T13:53:33;22.90;99.90
16578;DHT22;8401;52.528;13.340;2022-08-26T13:55:59;22.80;99.90
16578;DHT22;8401;52.528;13.340;2022-08-26T13:58:26;22.50;99.90
16578;DHT22;8401;52.528;13.340;2022-08-26T14:00:53;22.60;99.90
16578;DHT22;8401;52.528;13.340;2022-08-26T14:03:19;22.70;99.90
16578;DHT22;8401;52.528;13.340;2022-08-26T14:05:45;22.60;99.90
16578;DHT22;8401;52.528;13.340;2022-08-26T14:08:10;22.50;99.90
16578;DHT22;8401;52.528;13.340;2022-08-26T14:10:36;22.30;99.90
16578;DHT22;8401;52.528;13.340;2022-08-26T17:59:46;21.50;99.90
16578;DHT22;8401;52.528;13.340;2022-08-26T18:02:12;21.50;99.90
16578;DHT22;8401;52.528;13.340;2022-08-26T18:04:38;21.40;99.90
16578;DHT22;8401;52.528;13.340;2022-08-26T18:07:03;21.30;99.90
16578;DHT22;8401;52.528;13.340;2022-08-26T18:09:30;21.20;99.90
16578;DHT22;8401;52.528;13.340;2022-08-26T18:11:56;21.20;99.90
16578;DHT22;8401;52.528;13.340;2022-08-26T18:14:22;21.10;99.90
16578;DHT22;8401;52.528;13.340;2022-08-26T18:16:48;21.10;99.90
16578;DHT22;8401;52.528;13.340;2022-08-26T18:19:15;21.10;99.90
16578;DHT22;8401;52.528;13.340;2022-08-26T18:21:41;21.10;99.90
16578;DHT22;8401;52.528;13.340;2022-08-26T18:24:06;21.10;99.90
16578;DHT22;8401;52.528;13.340;2022-08-26T18:26:36;21.10;99.90
16578;DHT22;8401;52.528;13.340;2022-08-26T18:29:03;21.00;99.90
16578;DHT22;8401;52.528;13.340;2022-08-26T18:31:30;21.00;99.90
16578;DHT22;8401;52.528;13.340;2022-08-26T18:33:58;21.00;99.90
16578;DHT22;8401;52.528;13.340;2022-08-26T18:36:28;21.10;99.90
16578;DHT22;8401;52.528;13.340;2022-08-26T18:38:54;21.00;99.90
16578;DHT22;8401;52.528;13.340;2022-08-26T18:41:21;21.00;99.90
16578;DHT22;8401;52.528;13.340;2022-08-26T18:43:49;21.00;99.90
16578;DHT22;8401;52.528;13.340;2022-08-26T18:46:15;21.00;99.90
16578;DHT22;8401;52.528;13.340;2022-08-26T18:48:41;21.00;99.90
16578;DHT22;8401;52.528;13.340;2022-08-26T18:51:07;21.00;99.90
16578;DHT22;8401;52.528;13.340;2022-08-26T18:53:33;20.90;99.90
16578;DHT22;8401;52.528;13.340;2022-08-26T18:56:00;20.90;99.90
16578;DHT22;8401;52.528;13.340;2022-08-26T18:58:25;20.90;99.90
16578;DHT22;8401;52.528;13.340;2022-08-26T19:00:51;20.90;99.90
16578;DHT22;8401;52.528;13.340;2022-08-26T19:03:18;20.90;99.90
16578;DHT22;8401;52.528;13.340;2022-08-26T19:05:44;20.90;99.90
16578;DHT22;8401;52.528;13.340;2022-08-26T19:08:10;20.90;99.90
16578;DHT22;8401;52.528;13.340;2022-08-26T19:10:38;20.80;99.90
16578;DHT22;8401;52.528;13.340;2022-08-26T19:13:07;20.80;99.90
16578;DHT22;8401;52.528;13.340;2022-08-26T19:15:41;20.70;99.90
16578;DHT22;8401;52.528;13.340;2022-08-26T19:18:09;20.70;99.90
16578;DHT22;8401;52.528;13.340;2022-08-26T19:20:43;20.70;99.90
16578;DHT22;8401;52.528;13.340;2022-08-26T19:23:09;20.70;99.90
16578;DHT22;8401;52.528;13.340;2022-08-26T19:25:47;20.70;99.90
16578;DHT22;8401;52.528;13.340;2022-08-26T19:28:13;20.70;99.90
16578;DHT22;8401;52.528;13.340;2022-08-26T19:30:41;20.70;99.90
16578;DHT22;8401;52.528;13.340;2022-08-26T19:33:08;20.70;99.90
16578;DHT22;8401;52.528;13.340;2022-08-26T19:35:34;20.70;99.90
16578;DHT22;8401;52.528;13.340;2022-08-26T19:38:01;20.70;99.90
16578;DHT22;8401;52.528;13.340;2022-08-26T19:40:27;20.70;99.90
16578;DHT22;8401;52.528;13.340;2022-08-26T19:42:54;20.70;99.90
16578;DHT22;8401;52.528;13.340;2022-08-26T19:45:19;20.70;99.90
16578;DHT22;8401;52.528;13.340;2022-08-26T19:47:45;20.90;99.90
16578;DHT22;8401;52.528;13.340;2022-08-26T19:50:13;20.90;99.90
16578;DHT22;8401;52.528;13.340;2022-08-26T19:52:40;21.00;99.90
16578;DHT22;8401;52.528;13.340;2022-08-26T19:55:08;20.90;99.90
16578;DHT22;8401;52.528;13.340;2022-08-26T19:57:34;20.80;99.90
16578;DHT22;8401;52.528;13.340;2022-08-26T20:00:00;20.80;99.90
16578;DHT22;8401;52.528;13.340;2022-08-26T20:02:27;20.80;99.90
16578;DHT22;8401;52.528;13.340;2022-08-26T20:04:53;20.70;99.90
16578;DHT22;8401;52.528;13.340;2022-08-26T20:07:18;20.70;99.90
16578;DHT22;8401;52.528;13.340;2022-08-26T20:09:45;20.60;99.90
16578;DHT22;8401;52.528;13.340;2022-08-26T20:12:11;20.70;99.90
16578;DHT22;8401;52.528;13.340;2022-08-26T20:14:37;20.70;99.90
16578;DHT22;8401;52.528;13.340;2022-08-26T20:17:04;20.70;99.90
16578;DHT22;8401;52.528;13.340;2022-08-26T20:19:30;20.60;99.90
16578;DHT22;8401;52.528;13.340;2022-08-26T20:22:14;20.60;99.90
16578;DHT22;8401;52.528;13.340;2022-08-26T20:24:40;20.60;99.90
16578;DHT22;8401;52.528;13.340;2022-08-26T20:27:05;20.50;99.90
16578;DHT22;8401;52.528;13.340;2022-08-26T20:29:31;20.50;99.90
16578;DHT22;8401;52.528;13.340;2022-08-26T20:31:58;20.50;99.90
16578;DHT22;8401;52.528;13.340;2022-08-26T20:34:25;20.60;99.90
16578;DHT22;8401;52.528;13.340;2022-08-26T20:36:51;20.60;99.90
16578;DHT22;8401;52.528;13.340;2022-08-26T20:39:18;20.50;99.90
16578;DHT22;8401;52.528;13.340;2022-08-26T20:41:48;20.60;99.90
16578;DHT22;8401;52.528;13.340;2022-08-26T20:44:14;20.50;99.90
16578;DHT22;8401;52.528;13.340;2022-08-26T20:46:40;20.50;99.90
16578;DHT22;8401;52.528;13.340;2022-08-26T20:49:06;20.60;99.90